Eastover, South Carolina
Current Conditions -  °F | °C
As of 6:08 AM on Monday 20 Oct 2014 (Local Time) from KMMT Reporting Station
Haze Haze  
Wind Chill: 45°   Ceiling: Unl
Heat Index: 45°   Visibility: 1.2mi
Dew Point: 45°   Wind: 0mph
Humidity: 100%   Direction: NA
Pressure: 30.14"   Gusts: NA
Location:  33.88°N, 80.69°W
Report Text: KMMT 201008Z AUTO 00000KT 1 1/4SM R32/3500FT BR CLR 07/07 A3014 RMK AO2 VIS 1 1/4V1 3/4
Loading
Personal Weather Stations






























Interactive Weather Map
Tropical Storm Tracking
New forecast layout! Learn more

10-Day Weather Forecast

Advertisements
Track Severe Weather on mobile